sensor_id;sensor_type;location;lat;lon;timestamp;pressure;altitude;pressure_sealevel;temperature;humidity
35419;BME280;21525;41.240;16.500;2023-05-12T00:02:09;101174.44;;;25.82;47.30
35419;BME280;21525;41.240;16.500;2023-05-12T00:04:34;101171.13;;;25.78;46.68
35419;BME280;21525;41.240;16.500;2023-05-12T00:07:01;101169.97;;;25.82;46.51
35419;BME280;21525;41.240;16.500;2023-05-12T00:09:30;101163.25;;;25.76;46.25
35419;BME280;21525;41.240;16.500;2023-05-12T00:11:56;101162.19;;;25.92;45.74
35419;BME280;21525;41.240;16.500;2023-05-12T00:14:21;101164.41;;;25.85;45.66
35419;BME280;21525;41.240;16.500;2023-05-12T00:16:47;101158.97;;;25.74;45.51
35419;BME280;21525;41.240;16.500;2023-05-12T00:19:19;101154.41;;;25.63;44.77
35419;BME280;21525;41.240;16.500;2023-05-12T00:21:46;101158.22;;;25.59;44.65
35419;BME280;21525;41.240;16.500;2023-05-12T00:24:12;101163.09;;;25.53;44.42
35419;BME280;21525;41.240;16.500;2023-05-12T00:26:38;101149.03;;;25.51;44.22
35419;BME280;21525;41.240;16.500;2023-05-12T00:29:04;101150.31;;;25.58;44.26
35419;BME280;21525;41.240;16.500;2023-05-12T00:31:30;101149.78;;;25.53;44.32
35419;BME280;21525;41.240;16.500;2023-05-12T00:33:55;101152.84;;;25.47;44.07
35419;BME280;21525;41.240;16.500;2023-05-12T00:36:21;101150.94;;;25.49;43.85
35419;BME280;21525;41.240;16.500;2023-05-12T00:38:47;101154.56;;;25.48;43.63
35419;BME280;21525;41.240;16.500;2023-05-12T00:41:13;101150.75;;;25.52;43.22
35419;BME280;21525;41.240;16.500;2023-05-12T00:43:39;101150.28;;;25.45;42.85
35419;BME280;21525;41.240;16.500;2023-05-12T00:46:05;101140.06;;;25.39;43.17
35419;BME280;21525;41.240;16.500;2023-05-12T00:48:31;101145.59;;;25.36;42.89
35419;BME280;21525;41.240;16.500;2023-05-12T00:50:59;101146.38;;;25.51;42.70
35419;BME280;21525;41.240;16.500;2023-05-12T00:53:25;101141.75;;;25.40;42.65
35419;BME280;21525;41.240;16.500;2023-05-12T00:55:50;101148.78;;;25.28;42.80
35419;BME280;21525;41.240;16.500;2023-05-12T00:58:18;101144.22;;;25.30;42.98
35419;BME280;21525;41.240;16.500;2023-05-12T01:00:44;101141.75;;;25.27;43.32
35419;BME280;21525;41.240;16.500;2023-05-12T01:03:10;101143.63;;;25.13;43.28
35419;BME280;21525;41.240;16.500;2023-05-12T01:05:48;101143.94;;;25.08;43.47
35419;BME280;21525;41.240;16.500;2023-05-12T01:08:15;101144.47;;;25.00;43.46
35419;BME280;21525;41.240;16.500;2023-05-12T01:10:43;101140.78;;;24.89;43.49
35419;BME280;21525;41.240;16.500;2023-05-12T01:13:09;101146.84;;;24.91;43.99
35419;BME280;21525;41.240;16.500;2023-05-12T01:15:36;101139.88;;;24.75;44.00
35419;BME280;21525;41.240;16.500;2023-05-12T01:18:05;101136.72;;;24.83;43.95
35419;BME280;21525;41.240;16.500;2023-05-12T01:20:32;101140.72;;;24.76;44.15
35419;BME280;21525;41.240;16.500;2023-05-12T01:22:58;101135.25;;;24.92;44.07
35419;BME280;21525;41.240;16.500;2023-05-12T01:25:31;101128.19;;;24.78;44.00
35419;BME280;21525;41.240;16.500;2023-05-12T01:28:00;101126.00;;;24.70;44.11
35419;BME280;21525;41.240;16.500;2023-05-12T01:30:27;101122.34;;;25.00;43.43
35419;BME280;21525;41.240;16.500;2023-05-12T01:32:54;101122.53;;;24.97;43.31
35419;BME280;21525;41.240;16.500;2023-05-12T01:35:19;101122.72;;;24.94;43.46
35419;BME280;21525;41.240;16.500;2023-05-12T01:37:53;101125.78;;;24.88;43.16
35419;BME280;21525;41.240;16.500;2023-05-12T01:40:20;101125.50;;;25.05;42.89
35419;BME280;21525;41.240;16.500;2023-05-12T01:42:46;101127.22;;;25.06;42.99
35419;BME280;21525;41.240;16.500;2023-05-12T01:45:13;101124.25;;;24.98;43.00
35419;BME280;21525;41.240;16.500;2023-05-12T01:47:38;101124.38;;;24.82;42.83
35419;BME280;21525;41.240;16.500;2023-05-12T01:50:06;101119.50;;;24.89;43.33
35419;BME280;21525;41.240;16.500;2023-05-12T01:52:32;101114.38;;;24.86;43.42
35419;BME280;21525;41.240;16.500;2023-05-12T01:54:58;101121.81;;;24.81;43.11
35419;BME280;21525;41.240;16.500;2023-05-12T01:57:26;101117.78;;;24.88;42.96
35419;BME280;21525;41.240;16.500;2023-05-12T01:59:55;101116.28;;;24.84;43.12
35419;BME280;21525;41.240;16.500;2023-05-12T02:02:20;101118.06;;;24.97;42.75
35419;BME280;21525;41.240;16.500;2023-05-12T02:04:46;101117.63;;;24.50;43.49
35419;BME280;21525;41.240;16.500;2023-05-12T02:07:12;101117.56;;;24.37;43.40
35419;BME280;21525;41.240;16.500;2023-05-12T02:09:40;101117.06;;;24.71;42.63
35419;BME280;21525;41.240;16.500;2023-05-12T02:12:06;101118.28;;;24.53;42.97
35419;BME280;21525;41.240;16.500;2023-05-12T02:14:32;101112.91;;;24.94;42.53
35419;BME280;21525;41.240;16.500;2023-05-12T02:16:59;101112.53;;;25.00;42.14
35419;BME280;21525;41.240;16.500;2023-05-12T02:19:24;101113.66;;;24.69;42.56
35419;BME280;21525;41.240;16.500;2023-05-12T02:21:50;101109.06;;;24.86;42.48
35419;BME280;21525;41.240;16.500;2023-05-12T02:24:16;101110.59;;;24.49;42.94
35419;BME280;21525;41.240;16.500;2023-05-12T02:26:42;101118.03;;;24.70;42.38
35419;BME280;21525;41.240;16.500;2023-05-12T02:29:08;101104.88;;;24.82;42.16
35419;BME280;21525;41.240;16.500;2023-05-12T02:31:35;101111.16;;;24.81;42.01
35419;BME280;21525;41.240;16.500;2023-05-12T02:34:01;101116.94;;;24.33;42.44
35419;BME280;21525;41.240;16.500;2023-05-12T02:36:28;101121.72;;;24.41;42.16
35419;BME280;21525;41.240;16.500;2023-05-12T02:38:53;101111.94;;;24.56;41.97
35419;BME280;21525;41.240;16.500;2023-05-12T02:41:19;101111.78;;;24.98;41.56
35419;BME280;21525;41.240;16.500;2023-05-12T02:43:45;101110.97;;;24.57;41.95
35419;BME280;21525;41.240;16.500;2023-05-12T02:46:11;101118.09;;;24.56;41.80
35419;BME280;21525;41.240;16.500;2023-05-12T02:48:37;101110.72;;;24.47;41.69
35419;BME280;21525;41.240;16.500;2023-05-12T02:51:03;101111.13;;;24.68;41.13
35419;BME280;21525;41.240;16.500;2023-05-12T02:53:29;101108.84;;;24.89;40.90
35419;BME280;21525;41.240;16.500;2023-05-12T02:55:55;101101.53;;;24.65;41.24
35419;BME280;21525;41.240;16.500;2023-05-12T02:58:21;101111.34;;;24.65;41.13
35419;BME280;21525;41.240;16.500;2023-05-12T03:00:47;101100.31;;;24.84;40.95
35419;BME280;21525;41.240;16.500;2023-05-12T03:03:12;101105.63;;;24.98;40.96
35419;BME280;21525;41.240;16.500;2023-05-12T03:05:39;101113.03;;;24.93;40.78
35419;BME280;21525;41.240;16.500;2023-05-12T03:08:04;101109.44;;;24.67;40.77
35419;BME280;21525;41.240;16.500;2023-05-12T03:10:30;101109.06;;;24.86;40.98
35419;BME280;21525;41.240;16.500;2023-05-12T03:12:56;101111.91;;;24.83;40.90
35419;BME280;21525;41.240;16.500;2023-05-12T03:15:22;101110.34;;;24.39;40.90
35419;BME280;21525;41.240;16.500;2023-05-12T03:17:48;101114.97;;;24.76;40.75
35419;BME280;21525;41.240;16.500;2023-05-12T03:20:13;101104.88;;;24.96;40.54
35419;BME280;21525;41.240;16.500;2023-05-12T03:22:39;101104.06;;;24.94;40.21
35419;BME280;21525;41.240;16.500;2023-05-12T03:25:08;101106.03;;;24.77;40.61
35419;BME280;21525;41.240;16.500;2023-05-12T03:27:35;101108.81;;;24.76;40.55
35419;BME280;21525;41.240;16.500;2023-05-12T03:30:01;101107.16;;;24.88;40.19
35419;BME280;21525;41.240;16.500;2023-05-12T03:32:28;101106.25;;;24.74;40.54
35419;BME280;21525;41.240;16.500;2023-05-12T03:34:53;101121.97;;;23.95;41.67
35419;BME280;21525;41.240;16.500;2023-05-12T03:37:19;101120.84;;;23.99;42.12
35419;BME280;21525;41.240;16.500;2023-05-12T03:39:45;101121.97;;;23.95;42.29
35419;BME280;21525;41.240;16.500;2023-05-12T03:42:12;101122.41;;;24.44;41.70
35419;BME280;21525;41.240;16.500;2023-05-12T03:44:39;101124.00;;;24.47;41.85
35419;BME280;21525;41.240;16.500;2023-05-12T03:47:05;101117.28;;;24.41;41.74
35419;BME280;21525;41.240;16.500;2023-05-12T03:49:32;101115.56;;;24.40;41.63
35419;BME280;21525;41.240;16.500;2023-05-12T03:51:57;101122.66;;;24.54;41.21
35419;BME280;21525;41.240;16.500;2023-05-12T03:54:23;101126.25;;;24.67;40.57
35419;BME280;21525;41.240;16.500;2023-05-12T03:56:51;101131.09;;;24.61;40.95
35419;BME280;21525;41.240;16.500;2023-05-12T03:59:17;101121.88;;;24.66;40.71
35419;BME280;21525;41.240;16.500;2023-05-12T04:01:42;101123.25;;;24.72;40.52
35419;BME280;21525;41.240;16.500;2023-05-12T04:04:08;101124.94;;;24.60;40.73
35419;BME280;21525;41.240;16.500;2023-05-12T04:06:35;101126.63;;;24.61;40.43
35419;BME280;21525;41.240;16.500;2023-05-12T04:09:02;101117.63;;;24.76;40.67
35419;BME280;21525;41.240;16.500;2023-05-12T04:11:28;101122.16;;;24.62;40.36
35419;BME280;21525;41.240;16.500;2023-05-12T04:13:53;101127.56;;;24.87;40.12
35419;BME280;21525;41.240;16.500;2023-05-12T04:16:19;101124.16;;;24.58;40.40
35419;BME280;21525;41.240;16.500;2023-05-12T04:18:45;101125.31;;;24.81;40.40
35419;BME280;21525;41.240;16.500;2023-05-12T04:21:11;101129.75;;;24.95;39.85
35419;BME280;21525;41.240;16.500;2023-05-12T04:23:37;101128.63;;;24.99;40.03
35419;BME280;21525;41.240;16.500;2023-05-12T04:26:03;101134.59;;;25.15;39.63
35419;BME280;21525;41.240;16.500;2023-05-12T04:28:30;101124.69;;;25.17;39.73
35419;BME280;21525;41.240;16.500;2023-05-12T04:30:55;101130.13;;;25.16;39.45
35419;BME280;21525;41.240;16.500;2023-05-12T04:33:23;101129.91;;;25.19;39.57
35419;BME280;21525;41.240;16.500;2023-05-12T04:35:54;101134.69;;;25.01;40.20
35419;BME280;21525;41.240;16.500;2023-05-12T04:38:20;101128.88;;;24.94;40.16
35419;BME280;21525;41.240;16.500;2023-05-12T04:40:46;101133.94;;;25.11;39.89
35419;BME280;21525;41.240;16.500;2023-05-12T04:43:15;101138.25;;;25.27;39.74
35419;BME280;21525;41.240;16.500;2023-05-12T04:45:40;101135.19;;;25.33;39.52
35419;BME280;21525;41.240;16.500;2023-05-12T04:48:06;101137.09;;;25.31;39.47
35419;BME280;21525;41.240;16.500;2023-05-12T04:50:32;101139.97;;;25.40;39.35
35419;BME280;21525;41.240;16.500;2023-05-12T04:52:58;101143.69;;;25.51;39.62
35419;BME280;21525;41.240;16.500;2023-05-12T04:55:24;101141.16;;;25.62;39.35
35419;BME280;21525;41.240;16.500;2023-05-12T04:57:50;101141.69;;;25.67;39.15
35419;BME280;21525;41.240;16.500;2023-05-12T05:00:17;101136.50;;;25.65;39.15
35419;BME280;21525;41.240;16.500;2023-05-12T05:02:44;101139.03;;;25.80;39.27
35419;BME280;21525;41.240;16.500;2023-05-12T05:05:10;101141.06;;;25.89;39.29
35419;BME280;21525;41.240;16.500;2023-05-12T05:07:36;101140.97;;;25.90;38.97
35419;BME280;21525;41.240;16.500;2023-05-12T05:10:03;101140.53;;;25.96;39.06
35419;BME280;21525;41.240;16.500;2023-05-12T05:12:29;101134.75;;;26.02;38.93
35419;BME280;21525;41.240;16.500;2023-05-12T05:14:55;101138.06;;;26.06;39.13
35419;BME280;21525;41.240;16.500;2023-05-12T05:17:22;101151.13;;;26.34;39.00
35419;BME280;21525;41.240;16.500;2023-05-12T05:19:48;101143.41;;;26.55;38.99
35419;BME280;21525;41.240;16.500;2023-05-12T05:22:14;101137.25;;;26.42;39.32
35419;BME280;21525;41.240;16.500;2023-05-12T05:24:40;101146.53;;;26.73;39.00
35419;BME280;21525;41.240;16.500;2023-05-12T05:27:06;101140.41;;;26.84;38.78
35419;BME280;21525;41.240;16.500;2023-05-12T05:29:32;101141.72;;;27.02;38.38
35419;BME280;21525;41.240;16.500;2023-05-12T05:31:57;101144.66;;;27.10;38.56
35419;BME280;21525;41.240;16.500;2023-05-12T05:34:23;101149.78;;;27.13;38.55
35419;BME280;21525;41.240;16.500;2023-05-12T05:36:49;101142.53;;;27.26;38.21
35419;BME280;21525;41.240;16.500;2023-05-12T05:39:15;101140.78;;;27.49;38.36
35419;BME280;21525;41.240;16.500;2023-05-12T05:41:41;101141.97;;;27.45;38.56
35419;BME280;21525;41.240;16.500;2023-05-12T05:44:07;101145.88;;;27.52;38.36
35419;BME280;21525;41.240;16.500;2023-05-12T05:46:33;101147.94;;;27.49;38.32
35419;BME280;21525;41.240;16.500;2023-05-12T05:48:58;101146.59;;;27.43;38.63
35419;BME280;21525;41.240;16.500;2023-05-12T05:51:24;101149.56;;;27.62;38.48
35419;BME280;21525;41.240;16.500;2023-05-12T05:53:50;101148.97;;;27.70;38.83
35419;BME280;21525;41.240;16.500;2023-05-12T05:56:17;101153.84;;;27.87;38.66
35419;BME280;21525;41.240;16.500;2023-05-12T05:58:43;101148.28;;;27.90;38.49
35419;BME280;21525;41.240;16.500;2023-05-12T06:01:08;101160.28;;;28.18;38.73
35419;BME280;21525;41.240;16.500;2023-05-12T06:03:34;101160.91;;;28.33;38.74
35419;BME280;21525;41.240;16.500;2023-05-12T06:06:00;101155.41;;;28.57;38.53
35419;BME280;21525;41.240;16.500;2023-05-12T06:08:26;101157.41;;;28.87;37.95
35419;BME280;21525;41.240;16.500;2023-05-12T06:10:53;101163.44;;;29.00;37.69
35419;BME280;21525;41.240;16.500;2023-05-12T06:13:19;101165.00;;;29.02;37.95
35419;BME280;21525;41.240;16.500;2023-05-12T06:15:44;101161.91;;;29.18;37.43
35419;BME280;21525;41.240;16.500;2023-05-12T06:18:11;101165.19;;;29.22;37.34
35419;BME280;21525;41.240;16.500;2023-05-12T06:20:36;101163.16;;;29.77;36.45
35419;BME280;21525;41.240;16.500;2023-05-12T06:23:02;101163.13;;;30.28;36.16
35419;BME280;21525;41.240;16.500;2023-05-12T06:25:28;101169.41;;;30.48;35.42
35419;BME280;21525;41.240;16.500;2023-05-12T06:27:53;101167.81;;;30.35;35.46
35419;BME280;21525;41.240;16.500;2023-05-12T06:30:19;101166.53;;;30.39;36.15
35419;BME280;21525;41.240;16.500;2023-05-12T06:32:45;101172.53;;;30.53;35.89
35419;BME280;21525;41.240;16.500;2023-05-12T06:35:11;101164.81;;;30.98;35.23
35419;BME280;21525;41.240;16.500;2023-05-12T06:37:37;101161.28;;;31.46;33.81
35419;BME280;21525;41.240;16.500;2023-05-12T06:40:03;101159.03;;;31.51;34.16
35419;BME280;21525;41.240;16.500;2023-05-12T06:42:29;101170.28;;;31.83;33.35
35419;BME280;21525;41.240;16.500;2023-05-12T06:44:55;101176.69;;;31.72;32.43
35419;BME280;21525;41.240;16.500;2023-05-12T06:47:21;101171.44;;;31.81;33.52
35419;BME280;21525;41.240;16.500;2023-05-12T06:49:48;101174.91;;;31.91;32.96
35419;BME280;21525;41.240;16.500;2023-05-12T06:52:15;101175.84;;;32.46;31.88
35419;BME280;21525;41.240;16.500;2023-05-12T06:54:41;101181.69;;;32.59;31.06
35419;BME280;21525;41.240;16.500;2023-05-12T06:57:07;101182.78;;;32.66;31.43
35419;BME280;21525;41.240;16.500;2023-05-12T06:59:34;101185.38;;;32.58;31.39
35419;BME280;21525;41.240;16.500;2023-05-12T07:02:00;101178.56;;;32.82;30.71
35419;BME280;21525;41.240;16.500;2023-05-12T07:04:25;101183.69;;;33.02;31.22
35419;BME280;21525;41.240;16.500;2023-05-12T07:06:51;101181.13;;;33.01;31.26
35419;BME280;21525;41.240;16.500;2023-05-12T07:09:17;101190.16;;;33.10;30.02
35419;BME280;21525;41.240;16.500;2023-05-12T07:11:43;101182.91;;;33.46;29.22
35419;BME280;21525;41.240;16.500;2023-05-12T07:14:09;101191.63;;;33.40;28.82
35419;BME280;21525;41.240;16.500;2023-05-12T07:16:35;101185.94;;;33.51;29.13
35419;BME280;21525;41.240;16.500;2023-05-12T07:19:00;101182.13;;;33.79;29.28
35419;BME280;21525;41.240;16.500;2023-05-12T07:21:26;101177.63;;;34.22;27.91
35419;BME280;21525;41.240;16.500;2023-05-12T07:23:53;101182.28;;;34.38;27.64
35419;BME280;21525;41.240;16.500;2023-05-12T07:26:19;101180.13;;;34.57;27.76
35419;BME280;21525;41.240;16.500;2023-05-12T07:28:45;101183.72;;;34.66;26.92
35419;BME280;21525;41.240;16.500;2023-05-12T07:31:14;101177.72;;;34.96;26.98
35419;BME280;21525;41.240;16.500;2023-05-12T07:33:40;101176.84;;;34.88;26.90
35419;BME280;21525;41.240;16.500;2023-05-12T07:36:06;101182.91;;;34.82;26.66
35419;BME280;21525;41.240;16.500;2023-05-12T07:38:33;101192.47;;;33.66;28.28
35419;BME280;21525;41.240;16.500;2023-05-12T07:41:00;101193.13;;;34.20;27.86
35419;BME280;21525;41.240;16.500;2023-05-12T07:43:26;101189.63;;;34.61;26.99
35419;BME280;21525;41.240;16.500;2023-05-12T07:45:52;101186.00;;;34.45;28.18
35419;BME280;21525;41.240;16.500;2023-05-12T07:48:19;101192.25;;;34.95;27.10
35419;BME280;21525;41.240;16.500;2023-05-12T07:50:44;101186.69;;;35.46;26.67
35419;BME280;21525;41.240;16.500;2023-05-12T07:53:10;101187.91;;;35.35;26.64
35419;BME280;21525;41.240;16.500;2023-05-12T07:55:36;101185.00;;;35.28;26.34
35419;BME280;21525;41.240;16.500;2023-05-12T07:58:02;101177.72;;;35.61;26.36
35419;BME280;21525;41.240;16.500;2023-05-12T08:00:28;101187.72;;;35.37;26.58
35419;BME280;21525;41.240;16.500;2023-05-12T08:02:53;101187.19;;;35.65;26.31
35419;BME280;21525;41.240;16.500;2023-05-12T08:05:19;101188.53;;;35.69;26.03
35419;BME280;21525;41.240;16.500;2023-05-12T08:07:45;101181.75;;;35.82;26.51
35419;BME280;21525;41.240;16.500;2023-05-12T08:10:12;101174.66;;;34.83;28.13
35419;BME280;21525;41.240;16.500;2023-05-12T08:12:39;101178.53;;;34.89;26.58
35419;BME280;21525;41.240;16.500;2023-05-12T08:15:06;101183.53;;;33.04;29.88
35419;BME280;21525;41.240;16.500;2023-05-12T08:17:32;101178.78;;;33.59;29.35
35419;BME280;21525;41.240;16.500;2023-05-12T08:19:58;101183.47;;;33.57;29.24
35419;BME280;21525;41.240;16.500;2023-05-12T08:22:25;101189.81;;;31.66;31.89
35419;BME280;21525;41.240;16.500;2023-05-12T08:24:51;101193.84;;;31.43;33.23
35419;BME280;21525;41.240;16.500;2023-05-12T08:27:17;101192.69;;;31.74;33.22
35419;BME280;21525;41.240;16.500;2023-05-12T08:29:43;101202.06;;;32.44;32.93
35419;BME280;21525;41.240;16.500;2023-05-12T08:32:09;101201.53;;;31.94;33.80
35419;BME280;21525;41.240;16.500;2023-05-12T08:34:35;101197.91;;;30.98;34.05
35419;BME280;21525;41.240;16.500;2023-05-12T08:37:01;101205.34;;;30.66;33.92
35419;BME280;21525;41.240;16.500;2023-05-12T08:39:27;101204.88;;;31.20;32.95
35419;BME280;21525;41.240;16.500;2023-05-12T08:44:34;101218.00;;;30.54;33.42
35419;BME280;21525;41.240;16.500;2023-05-12T08:47:03;101214.25;;;29.22;34.88
35419;BME280;21525;41.240;16.500;2023-05-12T08:49:30;101207.16;;;30.25;35.99
35419;BME280;21525;41.240;16.500;2023-05-12T08:52:01;101207.34;;;30.73;35.38
35419;BME280;21525;41.240;16.500;2023-05-12T08:54:29;101206.28;;;31.34;34.34
35419;BME280;21525;41.240;16.500;2023-05-12T08:56:56;101208.25;;;29.92;35.36
35419;BME280;21525;41.240;16.500;2023-05-12T08:59:25;101209.97;;;30.24;34.41
35419;BME280;21525;41.240;16.500;2023-05-12T09:01:51;101205.75;;;30.61;34.63
35419;BME280;21525;41.240;16.500;2023-05-12T09:04:19;101209.25;;;31.12;33.01
35419;BME280;21525;41.240;16.500;2023-05-12T09:06:45;101211.56;;;29.54;36.71
35419;BME280;21525;41.240;16.500;2023-05-12T09:09:12;101212.94;;;29.37;35.98
35419;BME280;21525;41.240;16.500;2023-05-12T09:11:41;101213.09;;;29.04;39.37
35419;BME280;21525;41.240;16.500;2023-05-12T09:14:09;101212.31;;;28.81;40.44
35419;BME280;21525;41.240;16.500;2023-05-12T09:16:40;101213.75;;;28.74;42.13
35419;BME280;21525;41.240;16.500;2023-05-12T09:19:07;101211.00;;;28.42;42.44
35419;BME280;21525;41.240;16.500;2023-05-12T09:21:33;101204.59;;;27.06;44.68
35419;BME280;21525;41.240;16.500;2023-05-12T09:24:04;101209.38;;;26.77;47.53
35419;BME280;21525;41.240;16.500;2023-05-12T09:26:43;101208.72;;;27.34;46.42
35419;BME280;21525;41.240;16.500;2023-05-12T09:29:09;101200.50;;;27.94;44.45
35419;BME280;21525;41.240;16.500;2023-05-12T09:31:36;101197.06;;;27.35;44.26
35419;BME280;21525;41.240;16.500;2023-05-12T09:34:08;101191.16;;;27.42;42.73
35419;BME280;21525;41.240;16.500;2023-05-12T09:36:34;101203.25;;;27.24;45.58
35419;BME280;21525;41.240;16.500;2023-05-12T09:39:03;101200.53;;;28.28;45.42
35419;BME280;21525;41.240;16.500;2023-05-12T09:41:30;101198.34;;;27.18;48.19
35419;BME280;21525;41.240;16.500;2023-05-12T09:43:58;101192.97;;;29.09;43.89
35419;BME280;21525;41.240;16.500;2023-05-12T09:46:24;101187.16;;;28.05;46.26
35419;BME280;21525;41.240;16.500;2023-05-12T09:48:50;101177.97;;;29.50;43.46
35419;BME280;21525;41.240;16.500;2023-05-12T09:51:19;101184.84;;;28.57;45.36
35419;BME280;21525;41.240;16.500;2023-05-12T09:53:45;101184.50;;;28.28;46.13
35419;BME280;21525;41.240;16.500;2023-05-12T09:56:15;101187.88;;;27.85;45.82
35419;BME280;21525;41.240;16.500;2023-05-12T09:58:44;101193.25;;;26.78;49.39
35419;BME280;21525;41.240;16.500;2023-05-12T10:01:12;101196.59;;;26.69;49.67
35419;BME280;21525;41.240;16.500;2023-05-12T10:03:40;101184.06;;;27.30;48.77
35419;BME280;21525;41.240;16.500;2023-05-12T10:06:39;101182.44;;;28.42;47.35
35419;BME280;21525;41.240;16.500;2023-05-12T10:09:38;101178.31;;;28.93;46.57
35419;BME280;21525;41.240;16.500;2023-05-12T10:12:07;101181.56;;;27.86;49.40
35419;BME280;21525;41.240;16.500;2023-05-12T10:14:34;101179.28;;;28.26;47.82
35419;BME280;21525;41.240;16.500;2023-05-12T10:17:00;101172.91;;;27.60;50.22
35419;BME280;21525;41.240;16.500;2023-05-12T10:19:29;101168.72;;;27.56;51.07
35419;BME280;21525;41.240;16.500;2023-05-12T10:21:59;101172.94;;;27.13;53.29
35419;BME280;21525;41.240;16.500;2023-05-12T10:24:26;101174.41;;;27.52;52.74
35419;BME280;21525;41.240;16.500;2023-05-12T10:26:55;101169.53;;;27.81;43.05
35419;BME280;21525;41.240;16.500;2023-05-12T10:29:25;101183.25;;;26.07;45.62
35419;BME280;21525;41.240;16.500;2023-05-12T10:31:55;101173.06;;;27.11;42.87
35419;BME280;21525;41.240;16.500;2023-05-12T10:34:31;101169.41;;;28.16;41.24
35419;BME280;21525;41.240;16.500;2023-05-12T10:36:57;101172.91;;;29.04;40.01
35419;BME280;21525;41.240;16.500;2023-05-12T10:39:27;101172.91;;;29.57;37.42
35419;BME280;21525;41.240;16.500;2023-05-12T10:42:21;101167.19;;;29.08;37.79
35419;BME280;21525;41.240;16.500;2023-05-12T10:44:51;101168.25;;;28.63;39.06
35419;BME280;21525;41.240;16.500;2023-05-12T10:47:18;101166.47;;;29.06;41.19
35419;BME280;21525;41.240;16.500;2023-05-12T10:49:54;101173.75;;;27.94;42.50
35419;BME280;21525;41.240;16.500;2023-05-12T10:52:21;101158.47;;;28.30;42.02
35419;BME280;21525;41.240;16.500;2023-05-12T10:54:47;101163.94;;;28.94;40.23
35419;BME280;21525;41.240;16.500;2023-05-12T10:57:18;101159.47;;;29.15;39.90
35419;BME280;21525;41.240;16.500;2023-05-12T10:59:55;101158.47;;;28.41;40.29
35419;BME280;21525;41.240;16.500;2023-05-12T11:02:23;101174.72;;;27.60;44.13
35419;BME280;21525;41.240;16.500;2023-05-12T11:04:59;101168.78;;;27.79;43.57
35419;BME280;21525;41.240;16.500;2023-05-12T11:07:27;101164.78;;;27.95;47.70
35419;BME280;21525;41.240;16.500;2023-05-12T11:09:55;101164.91;;;28.50;48.46
35419;BME280;21525;41.240;16.500;2023-05-12T11:12:22;101162.28;;;28.70;50.13
35419;BME280;21525;41.240;16.500;2023-05-12T11:14:48;101153.22;;;27.72;51.52
35419;BME280;21525;41.240;16.500;2023-05-12T11:17:14;101156.97;;;27.59;49.88
35419;BME280;21525;41.240;16.500;2023-05-12T11:19:44;101160.28;;;27.38;48.57
35419;BME280;21525;41.240;16.500;2023-05-12T11:22:11;101165.69;;;26.91;50.29
35419;BME280;21525;41.240;16.500;2023-05-12T11:24:39;101163.47;;;27.08;50.56
35419;BME280;21525;41.240;16.500;2023-05-12T11:27:10;101157.84;;;27.59;49.12
35419;BME280;21525;41.240;16.500;2023-05-12T11:29:36;101164.41;;;28.11;47.48
35419;BME280;21525;41.240;16.500;2023-05-12T11:32:04;101169.69;;;28.89;46.30
35419;BME280;21525;41.240;16.500;2023-05-12T11:34:30;101177.19;;;28.52;47.35
35419;BME280;21525;41.240;16.500;2023-05-12T11:36:56;101177.28;;;27.37;49.90
35419;BME280;21525;41.240;16.500;2023-05-12T11:39:24;101174.59;;;27.72;51.05
35419;BME280;21525;41.240;16.500;2023-05-12T11:41:51;101169.06;;;27.52;51.61
35419;BME280;21525;41.240;16.500;2023-05-12T11:44:24;101179.56;;;26.96;48.26
35419;BME280;21525;41.240;16.500;2023-05-12T11:47:10;101181.47;;;27.18;45.27
35419;BME280;21525;41.240;16.500;2023-05-12T11:49:53;101183.22;;;27.65;45.42
35419;BME280;21525;41.240;16.500;2023-05-12T11:52:22;101186.88;;;26.06;49.14
35419;BME280;21525;41.240;16.500;2023-05-12T11:54:58;101186.06;;;25.93;50.66
35419;BME280;21525;41.240;16.500;2023-05-12T11:57:33;101191.50;;;25.92;51.49
35419;BME280;21525;41.240;16.500;2023-05-12T12:00:07;101192.56;;;25.89;51.58
35419;BME280;21525;41.240;16.500;2023-05-12T12:02:34;101200.00;;;25.19;55.77
35419;BME280;21525;41.240;16.500;2023-05-12T12:05:02;101204.69;;;25.68;53.56
35419;BME280;21525;41.240;16.500;2023-05-12T12:07:29;101201.19;;;25.40;53.90
35419;BME280;21525;41.240;16.500;2023-05-12T12:09:55;101206.06;;;25.61;54.90
35419;BME280;21525;41.240;16.500;2023-05-12T12:12:21;101186.00;;;26.44;52.36
35419;BME280;21525;41.240;16.500;2023-05-12T12:14:47;101198.47;;;25.55;53.76
35419;BME280;21525;41.240;16.500;2023-05-12T12:17:13;101196.03;;;25.12;54.69
35419;BME280;21525;41.240;16.500;2023-05-12T12:19:39;101193.31;;;25.66;55.05
35419;BME280;21525;41.240;16.500;2023-05-12T12:22:04;101190.75;;;25.77;54.36
35419;BME280;21525;41.240;16.500;2023-05-12T12:24:30;101182.97;;;25.34;54.51
35419;BME280;21525;41.240;16.500;2023-05-12T12:26:56;101181.81;;;25.38;54.06
35419;BME280;21525;41.240;16.500;2023-05-12T12:29:21;101196.38;;;25.20;52.75
35419;BME280;21525;41.240;16.500;2023-05-12T12:31:49;101182.16;;;25.47;52.73
35419;BME280;21525;41.240;16.500;2023-05-12T12:34:15;101184.63;;;25.62;52.63
35419;BME280;21525;41.240;16.500;2023-05-12T12:36:41;101186.94;;;25.41;53.31
35419;BME280;21525;41.240;16.500;2023-05-12T12:39:06;101201.84;;;25.31;50.52
35419;BME280;21525;41.240;16.500;2023-05-12T12:41:32;101185.69;;;25.60;51.98
35419;BME280;21525;41.240;16.500;2023-05-12T12:43:58;101190.66;;;25.91;51.55